createdAt,value
2019-02-28T00:00:59.913Z,39.75
2019-02-28T00:02:03.953Z,32.75
2019-02-28T00:03:07.680Z,28.45
2019-02-28T00:04:11.319Z,32.00
2019-02-28T00:05:14.960Z,35.55
2019-02-28T00:06:18.600Z,37.80
2019-02-28T00:07:22.230Z,31.70
2019-02-28T00:08:25.968Z,33.60
2019-02-28T00:09:29.542Z,32.03
2019-02-28T00:10:33.177Z,30.57
2019-02-28T00:11:39.573Z,30.15
2019-02-28T00:12:42.274Z,31.93
2019-02-28T00:13:45.915Z,30.20
2019-02-28T00:14:49.644Z,31.80
2019-02-28T00:15:53.661Z,33.45
2019-02-28T00:16:57.236Z,35.75
2019-02-28T00:18:00.865Z,34.25
2019-02-28T00:19:04.951Z,36.28
2019-02-28T00:20:09.591Z,36.45
2019-02-28T00:21:13.226Z,35.78
2019-02-28T00:22:17.152Z,43.33
2019-02-28T00:23:21.955Z,36.05
2019-02-28T00:24:27.221Z,35.70
2019-02-28T00:25:31.549Z,32.90
2019-02-28T00:26:35.196Z,35.73
2019-02-28T00:27:38.839Z,32.67
2019-02-28T00:28:42.472Z,33.90
2019-02-28T00:29:46.141Z,35.90
2019-02-28T00:30:49.813Z,31.50
2019-02-28T00:31:53.452Z,34.73
2019-02-28T00:34:18.317Z,31.37
2019-02-28T00:35:21.983Z,34.92
2019-02-28T00:36:25.625Z,35.03
2019-02-28T00:37:29.640Z,37.03
2019-02-28T00:38:33.276Z,28.77
2019-02-28T00:39:36.910Z,30.35
2019-02-28T00:40:40.571Z,28.05
2019-02-28T00:41:44.770Z,21.55
2019-02-28T00:42:50.820Z,23.07
2019-02-28T00:43:56.917Z,22.90
2019-02-28T00:45:02.269Z,18.67
2019-02-28T00:46:07.287Z,20.00
2019-02-28T00:47:09.863Z,18.67
2019-02-28T00:48:13.504Z,21.55
2019-02-28T00:49:32.231Z,17.98
2019-02-28T00:50:35.973Z,23.75
2019-02-28T00:51:39.615Z,25.02
2019-02-28T00:52:43.301Z,20.70
2019-02-28T00:53:46.931Z,24.10
2019-02-28T00:54:50.497Z,32.67
2019-02-28T00:55:54.449Z,22.95
2019-02-28T00:56:58.111Z,27.10
2019-02-28T00:58:02.039Z,25.60
2019-02-28T00:59:08.608Z,23.15
2019-02-28T01:00:15.231Z,34.15
2019-02-28T01:01:18.868Z,25.95
2019-02-28T01:02:22.530Z,25.72
2019-02-28T01:03:27.299Z,25.43
2019-02-28T01:04:31.601Z,23.52
2019-02-28T01:05:36.563Z,23.12
2019-02-28T01:06:41.753Z,18.40
2019-02-28T01:07:48.236Z,15.18
2019-02-28T01:08:52.984Z,12.00
2019-02-28T01:09:56.350Z,11.00
2019-02-28T01:10:59.987Z,13.50
2019-02-28T01:12:03.711Z,12.43
2019-02-28T01:13:07.368Z,12.33
2019-02-28T01:14:10.996Z,13.13
2019-02-28T01:15:18.685Z,12.93
2019-02-28T01:16:22.311Z,10.18
2019-02-28T01:17:26.748Z,11.03
2019-02-28T01:18:41.482Z,10.65
2019-02-28T01:19:45.107Z,9.08
2019-02-28T01:20:50.748Z,13.58
2019-02-28T01:21:55.450Z,9.90
2019-02-28T01:22:59.837Z,13.35
2019-02-28T01:24:03.481Z,11.75
2019-02-28T01:25:10.255Z,10.55
2019-02-28T01:26:13.896Z,10.65
2019-02-28T01:27:21.012Z,14.20
2019-02-28T01:28:23.407Z,20.12
2019-02-28T01:29:28.192Z,21.10
2019-02-28T01:30:31.826Z,16.82
2019-02-28T01:31:35.457Z,15.65
2019-02-28T01:32:39.146Z,22.15
2019-02-28T01:33:42.775Z,21.37
2019-02-28T01:34:46.446Z,16.62
2019-02-28T01:35:50.069Z,15.35
2019-02-28T01:36:53.704Z,15.60
2019-02-28T01:37:57.419Z,13.85
2019-02-28T01:39:01.046Z,28.45
2019-02-28T01:40:07.422Z,32.03
2019-02-28T01:41:11.894Z,26.50
2019-02-28T01:43:36.977Z,34.78
2019-02-28T01:44:40.536Z,35.03
2019-02-28T01:45:44.413Z,35.95
2019-02-28T01:46:48.657Z,38.83
2019-02-28T01:47:52.911Z,35.65
2019-02-28T01:48:56.535Z,34.10
2019-02-28T01:50:00.228Z,34.80
2019-02-28T01:51:03.925Z,35.88
2019-02-28T01:52:10.088Z,36.05
2019-02-28T01:53:13.315Z,34.88
2019-02-28T01:54:17.284Z,38.42
2019-02-28T01:55:20.902Z,36.63
2019-02-28T01:56:24.592Z,38.67
2019-02-28T01:57:28.381Z,40.67
2019-02-28T01:58:32.008Z,44.40
2019-02-28T01:59:35.638Z,38.30
2019-02-28T02:00:39.262Z,39.67
2019-02-28T02:01:42.896Z,44.15
2019-02-28T02:02:46.540Z,39.25
2019-02-28T02:03:50.174Z,51.98
2019-02-28T02:04:54.211Z,47.85
2019-02-28T02:05:57.853Z,52.05
2019-02-28T02:07:01.534Z,54.77
2019-02-28T02:08:07.313Z,45.60
2019-02-28T02:09:11.860Z,48.73
2019-02-28T02:10:21.706Z,44.55
2019-02-28T02:11:26.714Z,42.83
2019-02-28T02:12:31.679Z,43.70
2019-02-28T02:13:36.824Z,42.55
2019-02-28T02:14:44.898Z,48.45
2019-02-28T02:15:50.961Z,46.77
2019-02-28T02:16:52.521Z,44.83
2019-02-28T02:17:56.203Z,41.25
2019-02-28T02:18:59.830Z,35.65
2019-02-28T02:20:04.157Z,38.90
2019-02-28T02:21:07.810Z,37.42
2019-02-28T02:22:11.434Z,38.48
2019-02-28T02:23:17.804Z,36.73
2019-02-28T02:24:20.391Z,39.00
2019-02-28T02:25:24.021Z,32.83
2019-02-28T02:26:27.750Z,29.63
2019-02-28T02:27:31.365Z,36.88
2019-02-28T02:28:35.013Z,33.05
2019-02-28T02:29:38.647Z,35.25
2019-02-28T02:30:42.741Z,39.33
2019-02-28T02:31:46.355Z,31.82
2019-02-28T02:32:49.973Z,32.83
2019-02-28T02:33:53.625Z,35.70
2019-02-28T02:34:57.241Z,31.77
2019-02-28T02:36:00.889Z,31.55
2019-02-28T02:37:04.522Z,32.85
2019-02-28T02:38:08.143Z,35.55
2019-02-28T02:39:16.320Z,33.73
2019-02-28T02:40:17.680Z,32.48
2019-02-28T02:41:21.286Z,35.45
2019-02-28T02:42:24.920Z,33.80
2019-02-28T02:43:28.624Z,36.77
2019-02-28T02:44:32.307Z,32.78
2019-02-28T02:45:41.911Z,36.58
2019-02-28T02:46:41.280Z,35.43
2019-02-28T02:47:45.291Z,30.62
2019-02-28T02:48:48.897Z,35.13
2019-02-28T02:49:57.419Z,34.83
2019-02-28T02:50:57.857Z,30.02
2019-02-28T02:52:01.483Z,30.30
2019-02-28T02:53:06.442Z,30.55
2019-02-28T02:54:10.319Z,26.95
2019-02-28T02:55:14.609Z,30.02
2019-02-28T02:56:18.216Z,29.02
2019-02-28T02:57:21.863Z,29.20
2019-02-28T02:58:27.830Z,27.13
2019-02-28T02:59:37.254Z,32.80
2019-02-28T03:00:36.178Z,28.20
2019-02-28T03:01:40.143Z,30.37
2019-02-28T03:02:44.137Z,29.45
2019-02-28T03:03:47.762Z,26.40
2019-02-28T03:04:57.889Z,27.70
2019-02-28T03:05:56.851Z,31.45
2019-02-28T03:07:00.493Z,28.17
2019-02-28T03:08:04.099Z,30.77
2019-02-28T03:09:09.879Z,29.37
2019-02-28T03:10:17.474Z,30.23
2019-02-28T03:11:24.851Z,29.48
2019-02-28T03:12:31.204Z,30.68
2019-02-28T03:13:31.670Z,34.53
2019-02-28T03:14:35.284Z,33.70
2019-02-28T03:15:38.926Z,35.52
2019-02-28T03:16:42.610Z,37.23
2019-02-28T03:17:47.126Z,34.48
2019-02-28T03:18:56.826Z,38.05
2019-02-28T03:19:56.980Z,36.93
2019-02-28T03:21:00.599Z,31.50
2019-02-28T03:22:04.271Z,33.60
2019-02-28T03:23:07.909Z,30.85
2019-02-28T03:24:15.203Z,41.85
2019-02-28T03:25:17.634Z,36.88
2019-02-28T03:26:21.314Z,39.60
2019-02-28T03:27:24.877Z,36.58
2019-02-28T03:28:32.047Z,37.25
2019-02-28T03:29:33.906Z,40.98
2019-02-28T03:30:37.545Z,36.80
2019-02-28T03:31:41.213Z,36.53
2019-02-28T03:32:44.934Z,33.75
2019-02-28T03:33:48.566Z,35.70
2019-02-28T03:34:57.888Z,34.10
2019-02-28T03:35:57.493Z,32.95
2019-02-28T03:37:01.171Z,31.27
2019-02-28T03:38:10.633Z,33.60
2019-02-28T03:39:10.176Z,29.95
2019-02-28T03:40:15.596Z,34.27
2019-02-28T03:41:19.230Z,29.15
2019-02-28T03:42:28.605Z,35.20
2019-02-28T03:43:28.607Z,32.35
2019-02-28T03:44:32.238Z,31.35
2019-02-28T03:45:35.870Z,32.85
2019-02-28T03:46:46.433Z,31.70
2019-02-28T03:47:45.686Z,32.42
2019-02-28T03:48:49.323Z,26.85
2019-02-28T03:49:53.265Z,27.87
2019-02-28T03:50:56.914Z,26.73
2019-02-28T03:52:05.569Z,28.55
2019-02-28T03:53:05.936Z,32.85
2019-02-28T03:54:09.916Z,30.50
2019-02-28T03:55:14.415Z,28.57
2019-02-28T03:56:18.181Z,33.20
2019-02-28T03:57:27.976Z,32.78
2019-02-28T03:58:27.883Z,30.82
2019-02-28T03:59:31.519Z,30.05
2019-02-28T04:00:35.155Z,32.88
2019-02-28T04:01:45.029Z,33.85
2019-02-28T04:02:44.579Z,34.23
2019-02-28T04:03:48.228Z,34.03
2019-02-28T04:04:51.871Z,31.33
2019-02-28T04:06:03.003Z,31.15
2019-02-28T04:07:00.888Z,29.57
2019-02-28T04:08:04.627Z,30.97
2019-02-28T04:09:09.140Z,31.05
2019-02-28T04:10:16.814Z,31.42
2019-02-28T04:11:19.883Z,30.95
2019-02-28T04:12:23.521Z,32.28
2019-02-28T04:13:27.227Z,34.75
2019-02-28T04:14:33.018Z,32.67
2019-02-28T04:15:36.840Z,35.48
2019-02-28T04:16:40.535Z,36.75
2019-02-28T04:17:44.762Z,37.20
2019-02-28T04:18:48.419Z,32.80
2019-02-28T04:19:58.756Z,39.00
2019-02-28T04:20:57.432Z,40.10
2019-02-28T04:22:01.133Z,34.78
2019-02-28T04:23:04.881Z,39.78
2019-02-28T04:24:12.901Z,39.18
2019-02-28T04:25:13.983Z,37.30
2019-02-28T04:26:17.610Z,35.65
2019-02-28T04:27:21.240Z,33.80
2019-02-28T04:28:24.811Z,38.60
2019-02-28T04:29:31.199Z,38.17
2019-02-28T04:30:34.632Z,40.20
2019-02-28T04:31:38.201Z,37.28
2019-02-28T04:32:41.936Z,37.45
2019-02-28T04:33:45.514Z,35.30
2019-02-28T04:34:49.881Z,35.35
2019-02-28T04:35:56.801Z,31.95
2019-02-28T04:36:58.903Z,35.65
2019-02-28T04:38:02.541Z,38.50
2019-02-28T04:39:06.848Z,39.48
2019-02-28T04:40:12.264Z,37.60
2019-02-28T04:41:15.934Z,39.13
2019-02-28T04:42:19.935Z,38.80
2019-02-28T04:43:23.505Z,37.13
2019-02-28T04:44:27.077Z,38.15
2019-02-28T04:45:30.717Z,38.78
2019-02-28T04:46:34.401Z,36.08
2019-02-28T04:47:40.449Z,37.15
2019-02-28T04:48:45.668Z,38.83
2019-02-28T04:49:48.675Z,40.23
2019-02-28T04:50:52.296Z,42.15
2019-02-28T04:51:55.960Z,45.03
2019-02-28T04:52:59.602Z,49.95
2019-02-28T04:54:03.241Z,42.62
2019-02-28T04:55:07.582Z,47.53
2019-02-28T04:56:12.141Z,47.25
2019-02-28T04:57:17.412Z,44.27
2019-02-28T04:58:22.310Z,49.03
2019-02-28T04:59:26.681Z,50.17
2019-02-28T05:00:30.417Z,45.95
2019-02-28T05:01:34.049Z,47.80
2019-02-28T05:02:37.712Z,46.45
2019-02-28T05:03:41.466Z,44.85
2019-02-28T05:04:45.091Z,50.63
2019-02-28T05:05:48.716Z,49.00
2019-02-28T05:06:55.292Z,44.27
2019-02-28T05:07:57.759Z,46.15
2019-02-28T05:09:01.395Z,48.52
2019-02-28T05:10:07.019Z,50.95
2019-02-28T05:11:10.656Z,53.80
2019-02-28T05:12:14.317Z,52.55
2019-02-28T05:13:18.010Z,50.65
2019-02-28T05:14:23.793Z,50.55
2019-02-28T05:15:27.084Z,50.95
2019-02-28T05:16:30.726Z,81.20
2019-02-28T05:17:34.374Z,55.65
2019-02-28T05:18:38.037Z,53.98
2019-02-28T05:19:41.683Z,51.48
2019-02-28T05:20:46.050Z,50.58
2019-02-28T05:21:50.638Z,50.45
2019-02-28T05:22:54.989Z,45.48
2019-02-28T05:23:58.664Z,48.80
2019-02-28T05:25:02.302Z,51.20
2019-02-28T05:26:06.512Z,42.75
2019-02-28T05:27:10.217Z,39.38
2019-02-28T05:28:13.786Z,42.80
2019-02-28T05:29:17.455Z,45.75
2019-02-28T05:30:22.562Z,48.15
2019-02-28T05:31:27.125Z,48.02
2019-02-28T05:32:32.135Z,49.20
2019-02-28T05:33:38.387Z,43.98
2019-02-28T05:34:42.370Z,49.77
2019-02-28T05:35:45.934Z,47.08
2019-02-28T05:36:49.574Z,46.40
2019-02-28T05:37:53.214Z,41.48
2019-02-28T05:38:57.342Z,51.53
2019-02-28T05:40:05.234Z,54.95
2019-02-28T05:41:06.468Z,44.25
2019-02-28T05:42:10.112Z,47.80
2019-02-28T05:43:13.744Z,44.40
2019-02-28T05:44:18.455Z,51.53
2019-02-28T05:45:22.113Z,48.92
2019-02-28T05:46:25.674Z,56.18
2019-02-28T05:47:32.244Z,53.00
2019-02-28T05:48:38.605Z,61.70
2019-02-28T05:49:43.000Z,61.48
2019-02-28T05:50:52.810Z,58.52
2019-02-28T05:51:58.573Z,63.00
2019-02-28T05:52:59.951Z,69.25
2019-02-28T05:54:03.587Z,67.00
2019-02-28T05:55:09.132Z,69.32
2019-02-28T05:56:12.771Z,70.08
2019-02-28T05:57:16.414Z,143.22
2019-02-28T05:58:20.901Z,137.68
2019-02-28T05:59:27.402Z,165.40
2019-02-28T06:00:30.037Z,220.60
2019-02-28T06:01:33.975Z,138.90
2019-02-28T06:02:37.623Z,115.45
2019-02-28T06:03:41.573Z,101.87
2019-02-28T06:04:45.204Z,115.35
2019-02-28T06:05:48.895Z,105.65
2019-02-28T06:06:54.687Z,83.90
2019-02-28T06:08:00.566Z,68.42
2019-02-28T06:09:05.033Z,68.50
2019-02-28T06:10:11.479Z,78.62
2019-02-28T06:11:15.387Z,78.17
2019-02-28T06:12:19.193Z,65.72
2019-02-28T06:13:22.825Z,63.73
2019-02-28T06:14:27.624Z,63.83
2019-02-28T06:15:34.176Z,67.42
2019-02-28T06:16:36.781Z,58.05
2019-02-28T06:17:40.491Z,59.75
2019-02-28T06:18:44.127Z,75.92
2019-02-28T06:19:47.764Z,66.60
2019-02-28T06:20:52.264Z,66.22
2019-02-28T06:21:56.289Z,62.65
2019-02-28T06:23:01.686Z,68.02
2019-02-28T06:24:05.319Z,79.77
2019-02-28T06:25:10.552Z,71.37
2019-02-28T06:26:14.208Z,71.85
2019-02-28T06:27:18.464Z,66.40
2019-02-28T06:28:22.099Z,74.00
2019-02-28T06:29:25.747Z,84.55
2019-02-28T06:30:29.445Z,83.22
2019-02-28T06:31:34.469Z,83.45
2019-02-28T06:32:38.216Z,87.95
2019-02-28T06:33:41.901Z,83.15
2019-02-28T06:34:45.460Z,80.75
2019-02-28T06:35:49.521Z,68.35
2019-02-28T06:36:56.699Z,74.58
2019-02-28T06:38:00.423Z,67.53
2019-02-28T06:39:05.131Z,60.25
2019-02-28T06:40:15.632Z,70.22
2019-02-28T06:41:19.321Z,55.95
2019-02-28T06:42:23.035Z,60.12
2019-02-28T06:43:26.777Z,59.60
2019-02-28T06:44:30.349Z,51.37
2019-02-28T06:45:36.790Z,49.93
2019-02-28T06:46:40.009Z,44.83
2019-02-28T06:47:47.976Z,54.00
2019-02-28T06:48:49.766Z,51.68
2019-02-28T06:49:53.406Z,49.85
2019-02-28T06:50:57.021Z,52.90
2019-02-28T06:52:00.653Z,46.85
2019-02-28T06:53:04.294Z,47.62
2019-02-28T06:54:08.755Z,53.95
2019-02-28T06:55:14.742Z,50.30
2019-02-28T06:56:21.888Z,55.17
2019-02-28T06:57:26.854Z,51.20
2019-02-28T06:58:30.500Z,53.85
2019-02-28T06:59:36.191Z,49.05
2019-02-28T07:00:40.527Z,56.98
2019-02-28T07:01:44.158Z,49.83
2019-02-28T07:02:49.969Z,52.15
2019-02-28T07:03:53.783Z,51.05
2019-02-28T07:04:57.681Z,48.17
2019-02-28T07:06:01.998Z,53.28
2019-02-28T07:07:07.445Z,46.42
2019-02-28T07:08:11.162Z,46.28
2019-02-28T07:09:14.868Z,47.30
2019-02-28T07:10:18.817Z,47.70
2019-02-28T07:11:23.266Z,52.38
2019-02-28T07:12:30.459Z,46.55
2019-02-28T07:13:38.912Z,45.88
2019-02-28T07:14:39.716Z,39.25
2019-02-28T07:15:43.388Z,43.68
2019-02-28T07:16:47.030Z,42.17
2019-02-28T07:17:50.671Z,44.75
2019-02-28T07:18:54.452Z,62.20
2019-02-28T07:20:01.340Z,61.77
2019-02-28T07:21:03.600Z,52.00
2019-02-28T07:22:07.240Z,43.15
2019-02-28T07:23:10.891Z,40.23
2019-02-28T07:24:15.971Z,39.03
2019-02-28T07:25:19.664Z,33.10
2019-02-28T07:26:23.337Z,32.03
2019-02-28T07:27:29.720Z,32.45
2019-02-28T07:28:36.178Z,39.65
2019-02-28T07:29:37.954Z,30.17
2019-02-28T07:30:41.602Z,42.65
2019-02-28T07:31:45.276Z,31.48
2019-02-28T07:32:48.910Z,34.13
2019-02-28T07:33:52.561Z,31.95
2019-02-28T07:34:58.060Z,44.30
2019-02-28T07:36:01.555Z,45.10
2019-02-28T07:37:05.241Z,48.15
2019-02-28T07:38:08.823Z,45.98
2019-02-28T07:39:12.467Z,46.83
2019-02-28T07:40:17.535Z,52.70
2019-02-28T07:41:26.496Z,37.50
2019-02-28T07:42:26.668Z,38.73
2019-02-28T07:43:31.768Z,39.10
2019-02-28T07:44:37.934Z,37.23
2019-02-28T07:45:41.772Z,34.20
2019-02-28T07:46:45.447Z,33.28
2019-02-28T07:47:52.731Z,33.83
2019-02-28T07:48:54.556Z,32.20
2019-02-28T07:49:58.189Z,29.67
2019-02-28T07:51:02.167Z,30.10
2019-02-28T07:52:05.806Z,40.30
2019-02-28T07:53:09.814Z,39.07
2019-02-28T07:54:15.802Z,40.67
2019-02-28T07:55:21.281Z,46.50
2019-02-28T07:56:24.946Z,35.47
2019-02-28T07:57:28.579Z,31.27
2019-02-28T07:58:33.424Z,36.97
2019-02-28T07:59:40.969Z,30.23
2019-02-28T08:00:42.632Z,31.53
2019-02-28T08:01:46.271Z,33.90
2019-02-28T08:02:49.909Z,33.27
2019-02-28T08:03:54.573Z,32.47
2019-02-28T08:04:58.202Z,33.87
2019-02-28T08:06:04.768Z,41.50
2019-02-28T08:07:07.230Z,40.53
2019-02-28T08:08:10.963Z,39.97
2019-02-28T08:09:25.455Z,49.23
2019-02-28T08:10:30.382Z,43.30
2019-02-28T08:11:34.057Z,38.80
2019-02-28T08:12:37.777Z,29.90
2019-02-28T08:13:41.442Z,30.57
2019-02-28T08:14:47.119Z,29.67
2019-02-28T08:15:53.330Z,25.63
2019-02-28T08:16:55.996Z,21.53
2019-02-28T08:17:59.639Z,24.07
2019-02-28T08:19:03.277Z,30.97
2019-02-28T08:20:08.340Z,30.23
2019-02-28T08:21:12.253Z,31.10
2019-02-28T08:22:15.907Z,23.73
2019-02-28T08:23:19.624Z,27.60
2019-02-28T08:24:23.248Z,26.73
2019-02-28T08:25:26.921Z,25.57
2019-02-28T08:26:30.604Z,22.40
2019-02-28T08:27:34.245Z,25.77
2019-02-28T08:28:37.982Z,25.27
2019-02-28T08:29:44.767Z,22.23
2019-02-28T08:30:47.440Z,26.43
2019-02-28T08:31:51.226Z,21.63
2019-02-28T08:32:54.937Z,22.57
2019-02-28T08:33:58.706Z,20.90
2019-02-28T08:35:02.360Z,25.40
2019-02-28T08:36:16.723Z,21.93
2019-02-28T08:37:22.372Z,20.43
2019-02-28T08:38:25.906Z,42.20
2019-02-28T08:39:29.600Z,68.00
2019-02-28T08:40:33.321Z,50.83
2019-02-28T08:41:36.979Z,39.37
2019-02-28T08:42:40.793Z,37.13
2019-02-28T08:43:47.530Z,48.10
2019-02-28T08:44:49.853Z,26.67
2019-02-28T08:45:53.520Z,22.90
2019-02-28T08:46:57.194Z,21.80
2019-02-28T08:48:00.834Z,23.50
2019-02-28T08:49:07.264Z,30.13
2019-02-28T08:50:19.174Z,20.83
2019-02-28T08:51:22.969Z,26.93
2019-02-28T08:52:27.788Z,24.97
2019-02-28T08:53:31.420Z,23.57
2019-02-28T08:54:35.098Z,26.30
2019-02-28T08:55:39.990Z,24.23
2019-02-28T08:56:46.222Z,25.73
2019-02-28T08:57:54.747Z,22.20
2019-02-28T08:58:55.142Z,16.97
2019-02-28T08:59:58.776Z,15.57
2019-02-28T09:01:05.336Z,17.97
2019-02-28T09:02:08.639Z,18.37
2019-02-28T09:03:12.314Z,25.30
2019-02-28T09:04:15.954Z,22.60
2019-02-28T09:05:25.524Z,28.33
2019-02-28T09:06:25.053Z,22.23
2019-02-28T09:07:28.788Z,23.93
2019-02-28T09:08:32.463Z,20.17
2019-02-28T09:09:36.110Z,27.00
2019-02-28T09:10:39.752Z,26.83
2019-02-28T09:11:43.394Z,24.53
2019-02-28T09:12:47.194Z,24.77
2019-02-28T09:13:50.938Z,24.63
2019-02-28T09:14:55.456Z,18.73
2019-02-28T09:16:01.934Z,17.83
2019-02-28T09:17:06.998Z,21.50
2019-02-28T09:18:10.636Z,20.03
2019-02-28T09:19:14.232Z,21.40
2019-02-28T09:20:18.265Z,20.73
2019-02-28T09:21:21.888Z,18.53
2019-02-28T09:22:27.343Z,20.70
2019-02-28T09:23:30.898Z,19.13
2019-02-28T09:24:34.572Z,15.03
2019-02-28T09:25:38.207Z,18.40
2019-02-28T09:26:41.894Z,21.17
2019-02-28T09:27:45.539Z,16.83
2019-02-28T09:28:49.201Z,21.80
2019-02-28T09:29:54.877Z,21.13
2019-02-28T09:31:01.442Z,20.00
2019-02-28T09:32:05.747Z,28.53
2019-02-28T09:33:09.389Z,24.47
2019-02-28T09:34:13.035Z,32.63
2019-02-28T09:35:16.717Z,20.13
2019-02-28T09:36:21.508Z,16.43
2019-02-28T09:37:29.521Z,15.93
2019-02-28T09:38:30.771Z,16.67
2019-02-28T09:39:34.350Z,16.37
2019-02-28T09:40:38.000Z,20.43
2019-02-28T09:41:41.664Z,25.77
2019-02-28T09:42:47.842Z,25.60
2019-02-28T09:43:50.671Z,24.70
2019-02-28T09:44:54.310Z,22.97
2019-02-28T09:45:57.987Z,15.90
2019-02-28T09:47:01.625Z,13.77
2019-02-28T09:48:05.360Z,15.33
2019-02-28T09:49:12.238Z,25.00
2019-02-28T09:50:19.356Z,14.73
2019-02-28T09:51:22.985Z,14.20
2019-02-28T09:52:26.615Z,15.57
2019-02-28T09:53:30.248Z,15.67
2019-02-28T09:54:33.892Z,11.90
2019-02-28T09:55:37.527Z,46.13
2019-02-28T09:56:44.588Z,16.03
2019-02-28T09:57:46.640Z,12.90
2019-02-28T09:58:50.279Z,14.90
2019-02-28T09:59:53.925Z,16.93
2019-02-28T10:00:57.959Z,17.93
2019-02-28T10:02:05.020Z,15.57
2019-02-28T10:03:06.997Z,18.67
2019-02-28T10:04:10.712Z,16.93
2019-02-28T10:05:14.646Z,15.50
2019-02-28T10:06:18.284Z,24.13
2019-02-28T10:07:23.363Z,21.47
2019-02-28T10:08:27.328Z,17.27
2019-02-28T10:09:31.395Z,15.60
2019-02-28T10:10:35.033Z,18.20
2019-02-28T10:11:40.461Z,19.47
2019-02-28T10:12:44.280Z,20.53
2019-02-28T10:13:49.589Z,20.43
2019-02-28T10:14:53.380Z,45.90
2019-02-28T10:15:57.019Z,43.10
2019-02-28T10:17:00.736Z,54.90
2019-02-28T10:18:05.276Z,34.43
2019-02-28T10:19:10.198Z,24.10
2019-02-28T10:20:26.335Z,31.33
2019-02-28T10:21:27.801Z,21.40
2019-02-28T10:22:31.427Z,19.73
2019-02-28T10:23:35.083Z,14.37
2019-02-28T10:24:38.711Z,14.00
2019-02-28T10:25:43.723Z,15.50
2019-02-28T10:26:48.178Z,16.90
2019-02-28T10:27:54.610Z,18.60
2019-02-28T10:28:58.660Z,20.50
2019-02-28T10:30:02.295Z,16.27
2019-02-28T10:31:05.945Z,16.30
2019-02-28T10:32:09.751Z,20.43
2019-02-28T10:33:14.291Z,19.07
2019-02-28T10:34:19.125Z,20.50
2019-02-28T10:35:22.805Z,18.60
2019-02-28T10:36:26.443Z,16.73
2019-02-28T10:37:30.072Z,14.37
2019-02-28T10:38:33.900Z,15.50
2019-02-28T10:39:40.291Z,16.23
2019-02-28T10:40:43.509Z,16.60
2019-02-28T10:41:47.177Z,15.70
2019-02-28T10:42:50.809Z,13.77
2019-02-28T10:43:55.942Z,14.53
2019-02-28T10:44:59.795Z,13.70
2019-02-28T10:46:03.698Z,14.73
2019-02-28T10:47:07.337Z,12.67
2019-02-28T10:48:11.026Z,17.80
2019-02-28T10:49:14.663Z,15.20
2019-02-28T10:50:25.829Z,14.30
2019-02-28T10:51:29.231Z,15.17
2019-02-28T10:52:33.857Z,16.23
2019-02-28T10:53:39.365Z,14.50
2019-02-28T10:54:42.853Z,12.40
2019-02-28T10:55:46.596Z,15.10
2019-02-28T10:56:50.297Z,13.27
2019-02-28T10:57:53.950Z,19.70
2019-02-28T10:58:57.572Z,17.70
2019-02-28T11:00:01.267Z,15.90
2019-02-28T11:01:08.681Z,13.03
2019-02-28T11:02:18.990Z,21.37
2019-02-28T11:03:19.196Z,13.60
2019-02-28T11:04:22.897Z,18.43
2019-02-28T11:05:31.096Z,13.33
2019-02-28T11:06:38.009Z,11.50
2019-02-28T11:07:41.646Z,17.30
2019-02-28T11:08:47.482Z,13.10
2019-02-28T11:09:52.216Z,13.90
2019-02-28T11:10:55.866Z,16.20
2019-02-28T11:11:59.543Z,15.67
2019-02-28T11:13:03.199Z,13.00
2019-02-28T11:14:08.847Z,15.33
2019-02-28T11:15:13.854Z,12.47
2019-02-28T11:16:20.428Z,15.00
2019-02-28T11:17:23.130Z,13.57
2019-02-28T11:18:26.865Z,14.83
2019-02-28T11:19:30.564Z,12.27
2019-02-28T11:20:34.218Z,12.90
2019-02-28T11:21:37.866Z,10.90
2019-02-28T11:22:41.674Z,15.93
2019-02-28T11:23:46.485Z,10.70
2019-02-28T11:24:51.358Z,16.07
2019-02-28T11:25:55.406Z,16.30
2019-02-28T11:26:59.054Z,21.55
2019-02-28T11:28:02.825Z,36.25
2019-02-28T11:29:06.563Z,21.77
2019-02-28T11:30:13.112Z,14.55
2019-02-28T11:31:19.217Z,12.33
2019-02-28T11:32:23.237Z,11.63
2019-02-28T11:33:26.900Z,11.05
2019-02-28T11:34:30.744Z,10.82
2019-02-28T11:35:34.478Z,15.10
2019-02-28T11:36:38.503Z,10.08
2019-02-28T11:37:45.350Z,12.28
2019-02-28T11:38:48.055Z,10.05
2019-02-28T11:39:51.771Z,15.30
2019-02-28T11:40:57.540Z,12.35
2019-02-28T11:42:00.804Z,10.55
2019-02-28T11:43:05.130Z,11.85
2019-02-28T11:44:09.305Z,11.65
2019-02-28T11:45:26.502Z,8.70
2019-02-28T11:46:30.151Z,13.25
2019-02-28T11:47:33.853Z,13.22
2019-02-28T11:48:37.427Z,13.50
2019-02-28T11:49:41.229Z,14.15
2019-02-28T11:50:45.173Z,11.00
2019-02-28T11:51:49.377Z,15.50
2019-02-28T11:52:54.269Z,15.15
2019-02-28T11:53:57.922Z,23.50
2019-02-28T11:55:01.644Z,15.18
2019-02-28T11:56:05.277Z,9.80
2019-02-28T11:57:10.240Z,14.65
2019-02-28T11:58:17.581Z,16.17
2019-02-28T11:59:20.403Z,13.88
2019-02-28T12:00:35.835Z,10.63
2019-02-28T12:01:38.030Z,11.28
2019-02-28T12:02:41.668Z,9.18
2019-02-28T12:03:45.296Z,7.70
2019-02-28T12:04:49.119Z,10.58
2019-02-28T12:05:52.796Z,22.65
2019-02-28T12:06:57.390Z,14.15
2019-02-28T12:08:01.941Z,33.20
2019-02-28T12:09:07.292Z,16.73
2019-02-28T12:10:11.284Z,14.10
2019-02-28T12:11:15.017Z,12.73
2019-02-28T12:12:18.690Z,20.52
2019-02-28T12:13:22.453Z,18.52
2019-02-28T12:14:26.447Z,35.73
2019-02-28T12:15:33.817Z,19.55
2019-02-28T12:16:37.497Z,9.48
2019-02-28T12:17:41.142Z,17.98
2019-02-28T12:18:46.523Z,24.23
2019-02-28T12:19:50.640Z,38.53
2019-02-28T12:20:55.034Z,29.15
2019-02-28T12:22:00.146Z,23.52
2019-02-28T12:23:04.057Z,24.47
2019-02-28T12:24:07.705Z,21.73
2019-02-28T12:25:14.292Z,19.70
2019-02-28T12:26:18.811Z,12.75
2019-02-28T12:27:24.345Z,10.90
2019-02-28T12:28:27.986Z,9.40
2019-02-28T12:29:31.584Z,13.55
2019-02-28T12:30:36.264Z,11.33
2019-02-28T12:31:39.886Z,11.03
2019-02-28T12:32:44.193Z,8.28
2019-02-28T12:33:47.905Z,9.28
2019-02-28T12:34:51.619Z,9.95
2019-02-28T12:35:55.198Z,10.55
2019-02-28T12:36:59.948Z,13.88
2019-02-28T12:38:03.782Z,7.95
2019-02-28T12:39:08.229Z,12.20
2019-02-28T12:40:20.365Z,11.97
2019-02-28T12:41:25.134Z,12.95
2019-02-28T12:42:31.638Z,9.73
2019-02-28T12:43:34.735Z,12.10
2019-02-28T12:44:38.793Z,14.40
2019-02-28T12:45:47.262Z,8.85
2019-02-28T12:46:50.785Z,9.30
2019-02-28T12:47:54.419Z,15.30
2019-02-28T12:48:58.140Z,9.75
2019-02-28T12:50:01.778Z,14.30
2019-02-28T12:51:06.207Z,12.88
2019-02-28T12:52:11.257Z,10.63
2019-02-28T12:53:15.653Z,13.40
2019-02-28T12:54:19.668Z,13.35
2019-02-28T12:55:23.518Z,12.25
2019-02-28T12:56:27.236Z,13.03
2019-02-28T12:57:30.872Z,12.20
2019-02-28T12:58:38.864Z,11.28
2019-02-28T12:59:41.794Z,10.63
2019-02-28T13:00:47.231Z,10.72
2019-02-28T13:01:51.133Z,9.53
2019-02-28T13:02:54.688Z,8.60
2019-02-28T13:04:00.590Z,8.45
2019-02-28T13:05:04.895Z,10.08
2019-02-28T13:06:08.527Z,9.40
2019-02-28T13:07:12.525Z,13.80
2019-02-28T13:08:16.166Z,8.70
2019-02-28T13:09:19.795Z,7.90
2019-02-28T13:10:28.005Z,9.13
2019-02-28T13:11:29.242Z,12.33
2019-02-28T13:12:33.250Z,12.33
2019-02-28T13:13:37.096Z,10.40
2019-02-28T13:14:41.816Z,11.95
2019-02-28T13:15:46.776Z,11.10
2019-02-28T13:16:50.671Z,9.73
2019-02-28T13:17:54.334Z,10.78
2019-02-28T13:18:58.065Z,10.70
2019-02-28T13:20:01.812Z,9.78
2019-02-28T13:21:06.190Z,11.40
2019-02-28T13:22:11.019Z,9.20
2019-02-28T13:23:16.979Z,9.60
2019-02-28T13:24:19.947Z,11.15
2019-02-28T13:25:24.803Z,11.15
2019-02-28T13:26:30.589Z,8.50
2019-02-28T13:27:34.390Z,12.33
2019-02-28T13:28:38.109Z,9.68
2019-02-28T13:29:42.144Z,8.18
2019-02-28T13:30:50.150Z,12.10
2019-02-28T13:31:51.336Z,10.43
2019-02-28T13:32:55.196Z,10.03
2019-02-28T13:34:01.086Z,8.40
2019-02-28T13:35:07.432Z,12.20
2019-02-28T13:36:12.983Z,10.85
2019-02-28T13:37:16.785Z,9.78
2019-02-28T13:38:20.439Z,10.05
2019-02-28T13:39:27.415Z,10.43
2019-02-28T13:40:29.792Z,10.28
2019-02-28T13:41:33.442Z,9.03
2019-02-28T13:42:40.504Z,11.08
2019-02-28T13:43:42.857Z,12.33
2019-02-28T13:44:46.565Z,8.55
2019-02-28T13:45:54.441Z,8.13
2019-02-28T13:46:55.657Z,11.45
2019-02-28T13:47:59.271Z,13.83
2019-02-28T13:49:02.905Z,20.37
2019-02-28T13:50:16.799Z,8.63
2019-02-28T13:51:20.246Z,7.65
2019-02-28T13:52:23.913Z,7.40
2019-02-28T13:53:30.588Z,13.90